sensor_id;sensor_type;location;lat;lon;timestamp;temperature;humidity
30244;DHT22;64022;53.652;9.792;2024-03-17T00:01:32;22.20;50.20
30244;DHT22;64022;53.652;9.792;2024-03-17T00:03:59;22.20;50.20
30244;DHT22;64022;53.652;9.792;2024-03-17T00:06:25;22.20;50.20
30244;DHT22;64022;53.652;9.792;2024-03-17T00:08:51;22.20;50.20
30244;DHT22;64022;53.652;9.792;2024-03-17T00:11:17;22.20;50.20
30244;DHT22;64022;53.652;9.792;2024-03-17T00:13:43;22.20;50.20
30244;DHT22;64022;53.652;9.792;2024-03-17T00:16:08;22.20;50.20
30244;DHT22;64022;53.652;9.792;2024-03-17T00:18:35;22.20;50.20
30244;DHT22;64022;53.652;9.792;2024-03-17T00:21:02;22.20;50.20
30244;DHT22;64022;53.652;9.792;2024-03-17T00:23:29;22.20;50.20
30244;DHT22;64022;53.652;9.792;2024-03-17T00:25:56;22.20;50.20
30244;DHT22;64022;53.652;9.792;2024-03-17T00:28:22;22.20;50.20
30244;DHT22;64022;53.652;9.792;2024-03-17T00:30:48;22.20;50.20
30244;DHT22;64022;53.652;9.792;2024-03-17T00:33:14;22.20;50.20
30244;DHT22;64022;53.652;9.792;2024-03-17T00:35:41;22.20;50.20
30244;DHT22;64022;53.652;9.792;2024-03-17T00:38:07;22.20;50.20
30244;DHT22;64022;53.652;9.792;2024-03-17T00:40:36;22.20;50.20
30244;DHT22;64022;53.652;9.792;2024-03-17T00:43:02;22.20;50.20
30244;DHT22;64022;53.652;9.792;2024-03-17T00:45:29;22.20;50.20
30244;DHT22;64022;53.652;9.792;2024-03-17T00:47:54;22.20;50.20
30244;DHT22;64022;53.652;9.792;2024-03-17T00:50:20;22.20;50.20
30244;DHT22;64022;53.652;9.792;2024-03-17T00:52:48;22.20;50.30
30244;DHT22;64022;53.652;9.792;2024-03-17T00:55:14;22.20;50.20
30244;DHT22;64022;53.652;9.792;2024-03-17T00:57:40;22.20;50.30
30244;DHT22;64022;53.652;9.792;2024-03-17T01:00:06;22.20;50.30
30244;DHT22;64022;53.652;9.792;2024-03-17T01:02:34;22.20;50.30
30244;DHT22;64022;53.652;9.792;2024-03-17T01:05:00;22.20;50.30
30244;DHT22;64022;53.652;9.792;2024-03-17T01:07:26;22.10;50.20
30244;DHT22;64022;53.652;9.792;2024-03-17T01:09:52;22.10;50.20
30244;DHT22;64022;53.652;9.792;2024-03-17T01:12:19;22.10;50.20
30244;DHT22;64022;53.652;9.792;2024-03-17T01:14:48;22.10;50.20
30244;DHT22;64022;53.652;9.792;2024-03-17T01:17:13;22.20;50.30
30244;DHT22;64022;53.652;9.792;2024-03-17T01:19:40;22.20;50.30
30244;DHT22;64022;53.652;9.792;2024-03-17T01:22:05;22.20;50.30
30244;DHT22;64022;53.652;9.792;2024-03-17T01:24:32;22.10;50.20
30244;DHT22;64022;53.652;9.792;2024-03-17T01:26:59;22.10;50.30
30244;DHT22;64022;53.652;9.792;2024-03-17T01:29:34;22.10;50.30
30244;DHT22;64022;53.652;9.792;2024-03-17T01:32:01;22.10;50.30
30244;DHT22;64022;53.652;9.792;2024-03-17T01:34:27;22.10;50.30
30244;DHT22;64022;53.652;9.792;2024-03-17T01:36:52;22.10;50.30
30244;DHT22;64022;53.652;9.792;2024-03-17T01:39:18;22.10;50.30
30244;DHT22;64022;53.652;9.792;2024-03-17T01:41:45;22.10;50.30
30244;DHT22;64022;53.652;9.792;2024-03-17T01:44:21;22.10;50.30
30244;DHT22;64022;53.652;9.792;2024-03-17T01:46:49;22.10;50.30
30244;DHT22;64022;53.652;9.792;2024-03-17T01:49:15;22.10;50.30
30244;DHT22;64022;53.652;9.792;2024-03-17T01:51:41;22.10;50.30
30244;DHT22;64022;53.652;9.792;2024-03-17T01:54:08;22.10;50.30
30244;DHT22;64022;53.652;9.792;2024-03-17T01:56:34;22.10;50.30
30244;DHT22;64022;53.652;9.792;2024-03-17T01:59:01;22.10;50.30
30244;DHT22;64022;53.652;9.792;2024-03-17T02:01:27;22.10;50.30
30244;DHT22;64022;53.652;9.792;2024-03-17T02:03:54;22.10;50.80
30244;DHT22;64022;53.652;9.792;2024-03-17T02:06:21;22.10;50.30
30244;DHT22;64022;53.652;9.792;2024-03-17T02:08:51;22.10;50.30
30244;DHT22;64022;53.652;9.792;2024-03-17T02:11:30;22.10;50.30
30244;DHT22;64022;53.652;9.792;2024-03-17T02:13:58;22.10;50.30
30244;DHT22;64022;53.652;9.792;2024-03-17T02:16:23;22.10;50.30
30244;DHT22;64022;53.652;9.792;2024-03-17T02:18:59;22.10;50.30
30244;DHT22;64022;53.652;9.792;2024-03-17T02:21:25;22.10;50.30
30244;DHT22;64022;53.652;9.792;2024-03-17T02:23:53;22.10;50.30
30244;DHT22;64022;53.652;9.792;2024-03-17T02:26:19;22.10;50.90
30244;DHT22;64022;53.652;9.792;2024-03-17T02:28:45;22.10;50.40
30244;DHT22;64022;53.652;9.792;2024-03-17T02:31:12;22.10;50.40
30244;DHT22;64022;53.652;9.792;2024-03-17T02:33:38;22.10;50.40
30244;DHT22;64022;53.652;9.792;2024-03-17T02:36:05;22.10;50.40
30244;DHT22;64022;53.652;9.792;2024-03-17T02:38:33;22.10;50.40
30244;DHT22;64022;53.652;9.792;2024-03-17T02:41:17;22.10;50.40
30244;DHT22;64022;53.652;9.792;2024-03-17T02:43:44;22.10;50.40
30244;DHT22;64022;53.652;9.792;2024-03-17T02:46:11;22.10;50.40
30244;DHT22;64022;53.652;9.792;2024-03-17T02:48:39;22.10;50.40
30244;DHT22;64022;53.652;9.792;2024-03-17T02:51:10;22.10;50.40
30244;DHT22;64022;53.652;9.792;2024-03-17T02:53:37;22.10;50.40
30244;DHT22;64022;53.652;9.792;2024-03-17T02:56:03;22.00;50.40
30244;DHT22;64022;53.652;9.792;2024-03-17T02:58:29;22.00;50.40
30244;DHT22;64022;53.652;9.792;2024-03-17T03:00:55;22.00;50.40
30244;DHT22;64022;53.652;9.792;2024-03-17T03:03:21;22.10;50.40
30244;DHT22;64022;53.652;9.792;2024-03-17T03:05:47;22.00;50.40
30244;DHT22;64022;53.652;9.792;2024-03-17T03:08:14;22.10;50.40
30244;DHT22;64022;53.652;9.792;2024-03-17T03:10:43;22.00;50.40
30244;DHT22;64022;53.652;9.792;2024-03-17T03:13:09;22.00;50.40
30244;DHT22;64022;53.652;9.792;2024-03-17T03:15:36;22.00;50.50
30244;DHT22;64022;53.652;9.792;2024-03-17T03:18:01;22.00;50.40
30244;DHT22;64022;53.652;9.792;2024-03-17T03:20:27;22.00;50.50
30244;DHT22;64022;53.652;9.792;2024-03-17T03:22:53;22.00;50.50
30244;DHT22;64022;53.652;9.792;2024-03-17T03:25:20;22.00;50.50
30244;DHT22;64022;53.652;9.792;2024-03-17T03:27:47;22.00;50.50
30244;DHT22;64022;53.652;9.792;2024-03-17T03:30:13;22.00;50.50
30244;DHT22;64022;53.652;9.792;2024-03-17T03:32:41;22.00;50.50
30244;DHT22;64022;53.652;9.792;2024-03-17T03:35:07;22.00;50.50
30244;DHT22;64022;53.652;9.792;2024-03-17T03:37:35;22.00;51.00
30244;DHT22;64022;53.652;9.792;2024-03-17T03:40:01;22.00;50.50
30244;DHT22;64022;53.652;9.792;2024-03-17T03:42:28;22.00;50.50
30244;DHT22;64022;53.652;9.792;2024-03-17T03:44:54;22.00;50.50
30244;DHT22;64022;53.652;9.792;2024-03-17T03:47:20;22.00;50.50
30244;DHT22;64022;53.652;9.792;2024-03-17T03:49:46;22.00;50.50
30244;DHT22;64022;53.652;9.792;2024-03-17T03:52:12;22.00;50.60
30244;DHT22;64022;53.652;9.792;2024-03-17T03:54:38;22.00;50.60
30244;DHT22;64022;53.652;9.792;2024-03-17T03:57:04;22.00;50.60
30244;DHT22;64022;53.652;9.792;2024-03-17T03:59:30;21.90;50.50
30244;DHT22;64022;53.652;9.792;2024-03-17T04:01:56;22.00;50.60
30244;DHT22;64022;53.652;9.792;2024-03-17T04:04:23;22.00;50.60
30244;DHT22;64022;53.652;9.792;2024-03-17T04:06:48;21.90;50.60
30244;DHT22;64022;53.652;9.792;2024-03-17T04:09:14;22.00;50.60
30244;DHT22;64022;53.652;9.792;2024-03-17T04:11:40;21.90;50.60
30244;DHT22;64022;53.652;9.792;2024-03-17T04:14:05;21.90;50.60
30244;DHT22;64022;53.652;9.792;2024-03-17T04:16:31;21.90;50.60
30244;DHT22;64022;53.652;9.792;2024-03-17T04:18:57;22.00;50.70
30244;DHT22;64022;53.652;9.792;2024-03-17T04:21:23;22.00;50.70
30244;DHT22;64022;53.652;9.792;2024-03-17T04:23:49;21.90;50.60
30244;DHT22;64022;53.652;9.792;2024-03-17T04:26:14;22.00;50.70
30244;DHT22;64022;53.652;9.792;2024-03-17T04:28:41;22.00;51.30
30244;DHT22;64022;53.652;9.792;2024-03-17T04:31:06;22.00;50.70
30244;DHT22;64022;53.652;9.792;2024-03-17T04:33:33;22.00;50.70
30244;DHT22;64022;53.652;9.792;2024-03-17T04:35:59;21.90;50.70
30244;DHT22;64022;53.652;9.792;2024-03-17T04:38:25;22.00;50.80
30244;DHT22;64022;53.652;9.792;2024-03-17T04:40:54;22.00;50.80
30244;DHT22;64022;53.652;9.792;2024-03-17T04:43:32;21.90;50.70
30244;DHT22;64022;53.652;9.792;2024-03-17T04:46:02;22.00;50.80
30244;DHT22;64022;53.652;9.792;2024-03-17T04:48:29;22.00;50.80
30244;DHT22;64022;53.652;9.792;2024-03-17T04:50:55;22.00;50.80
30244;DHT22;64022;53.652;9.792;2024-03-17T04:53:21;22.00;50.80
30244;DHT22;64022;53.652;9.792;2024-03-17T04:55:48;21.90;50.80
30244;DHT22;64022;53.652;9.792;2024-03-17T04:58:13;22.00;50.80
30244;DHT22;64022;53.652;9.792;2024-03-17T05:00:47;22.00;50.90
30244;DHT22;64022;53.652;9.792;2024-03-17T05:03:16;22.00;50.90
30244;DHT22;64022;53.652;9.792;2024-03-17T05:05:42;22.00;50.90
30244;DHT22;64022;53.652;9.792;2024-03-17T05:08:08;22.00;50.90
30244;DHT22;64022;53.652;9.792;2024-03-17T05:10:34;22.00;50.90
30244;DHT22;64022;53.652;9.792;2024-03-17T05:13:02;22.00;50.90
30244;DHT22;64022;53.652;9.792;2024-03-17T05:15:28;22.00;50.90
30244;DHT22;64022;53.652;9.792;2024-03-17T05:17:55;22.00;50.90
30244;DHT22;64022;53.652;9.792;2024-03-17T05:20:21;22.00;50.90
30244;DHT22;64022;53.652;9.792;2024-03-17T05:22:49;22.00;50.90
30244;DHT22;64022;53.652;9.792;2024-03-17T05:25:15;22.00;50.90
30244;DHT22;64022;53.652;9.792;2024-03-17T05:27:41;22.00;51.00
30244;DHT22;64022;53.652;9.792;2024-03-17T05:30:07;22.00;50.90
30244;DHT22;64022;53.652;9.792;2024-03-17T05:32:34;22.00;50.90
30244;DHT22;64022;53.652;9.792;2024-03-17T05:34:59;22.00;51.00
30244;DHT22;64022;53.652;9.792;2024-03-17T05:37:26;22.10;51.00
30244;DHT22;64022;53.652;9.792;2024-03-17T05:39:53;22.00;51.00
30244;DHT22;64022;53.652;9.792;2024-03-17T05:42:19;22.10;51.00
30244;DHT22;64022;53.652;9.792;2024-03-17T05:44:45;22.00;51.00
30244;DHT22;64022;53.652;9.792;2024-03-17T05:47:18;22.10;51.00
30244;DHT22;64022;53.652;9.792;2024-03-17T05:49:46;22.00;51.00
30244;DHT22;64022;53.652;9.792;2024-03-17T05:52:12;22.00;51.00
30244;DHT22;64022;53.652;9.792;2024-03-17T05:54:38;22.00;51.00
30244;DHT22;64022;53.652;9.792;2024-03-17T05:57:04;22.00;51.00
30244;DHT22;64022;53.652;9.792;2024-03-17T05:59:30;22.00;51.00
30244;DHT22;64022;53.652;9.792;2024-03-17T06:01:57;22.10;51.10
30244;DHT22;64022;53.652;9.792;2024-03-17T06:04:24;22.10;51.10
30244;DHT22;64022;53.652;9.792;2024-03-17T06:06:49;22.10;51.10
30244;DHT22;64022;53.652;9.792;2024-03-17T06:09:22;22.10;51.10
30244;DHT22;64022;53.652;9.792;2024-03-17T06:11:49;22.10;51.10
30244;DHT22;64022;53.652;9.792;2024-03-17T06:14:16;22.10;51.10
30244;DHT22;64022;53.652;9.792;2024-03-17T06:16:45;22.10;51.10
30244;DHT22;64022;53.652;9.792;2024-03-17T06:19:12;22.10;51.10
30244;DHT22;64022;53.652;9.792;2024-03-17T06:21:38;22.10;51.10
30244;DHT22;64022;53.652;9.792;2024-03-17T06:24:04;22.10;51.10
30244;DHT22;64022;53.652;9.792;2024-03-17T06:26:32;22.10;51.10
30244;DHT22;64022;53.652;9.792;2024-03-17T06:29:00;22.10;51.10
30244;DHT22;64022;53.652;9.792;2024-03-17T06:31:26;22.10;51.10
30244;DHT22;64022;53.652;9.792;2024-03-17T06:33:52;22.20;51.20
30244;DHT22;64022;53.652;9.792;2024-03-17T06:36:17;22.10;51.20
30244;DHT22;64022;53.652;9.792;2024-03-17T06:38:44;22.20;51.20
30244;DHT22;64022;53.652;9.792;2024-03-17T06:41:10;22.20;51.20
30244;DHT22;64022;53.652;9.792;2024-03-17T06:43:35;22.20;51.20
30244;DHT22;64022;53.652;9.792;2024-03-17T06:46:01;22.20;51.30
30244;DHT22;64022;53.652;9.792;2024-03-17T06:48:27;22.20;51.30
30244;DHT22;64022;53.652;9.792;2024-03-17T06:50:53;22.20;51.30
30244;DHT22;64022;53.652;9.792;2024-03-17T06:53:23;22.20;51.30
30244;DHT22;64022;53.652;9.792;2024-03-17T06:55:55;22.20;51.20
30244;DHT22;64022;53.652;9.792;2024-03-17T06:58:22;22.20;51.30
30244;DHT22;64022;53.652;9.792;2024-03-17T07:01:17;22.20;51.30
30244;DHT22;64022;53.652;9.792;2024-03-17T07:03:40;22.20;51.30
30244;DHT22;64022;53.652;9.792;2024-03-17T07:06:06;22.20;51.30
30244;DHT22;64022;53.652;9.792;2024-03-17T07:08:33;22.20;51.30
30244;DHT22;64022;53.652;9.792;2024-03-17T07:11:00;22.20;51.30
30244;DHT22;64022;53.652;9.792;2024-03-17T07:13:38;22.20;51.30
30244;DHT22;64022;53.652;9.792;2024-03-17T07:16:07;22.20;51.30
30244;DHT22;64022;53.652;9.792;2024-03-17T07:18:37;22.30;51.40
30244;DHT22;64022;53.652;9.792;2024-03-17T07:21:03;22.30;51.90
30244;DHT22;64022;53.652;9.792;2024-03-17T07:23:35;22.30;51.40
30244;DHT22;64022;53.652;9.792;2024-03-17T07:26:02;22.30;51.40
30244;DHT22;64022;53.652;9.792;2024-03-17T07:28:28;22.30;51.40
30244;DHT22;64022;53.652;9.792;2024-03-17T07:30:55;22.30;51.40
30244;DHT22;64022;53.652;9.792;2024-03-17T07:33:24;22.30;51.40
30244;DHT22;64022;53.652;9.792;2024-03-17T07:35:51;22.30;51.40
30244;DHT22;64022;53.652;9.792;2024-03-17T07:38:17;22.30;51.30
30244;DHT22;64022;53.652;9.792;2024-03-17T07:40:44;22.30;51.30
30244;DHT22;64022;53.652;9.792;2024-03-17T07:43:10;22.30;51.30
30244;DHT22;64022;53.652;9.792;2024-03-17T07:45:37;22.30;51.30
30244;DHT22;64022;53.652;9.792;2024-03-17T07:48:03;22.30;51.30
30244;DHT22;64022;53.652;9.792;2024-03-17T07:50:30;22.30;51.10
30244;DHT22;64022;53.652;9.792;2024-03-17T07:52:56;22.20;48.00
30244;DHT22;64022;53.652;9.792;2024-03-17T07:55:22;21.90;45.20
30244;DHT22;64022;53.652;9.792;2024-03-17T07:57:47;21.50;43.00
30244;DHT22;64022;53.652;9.792;2024-03-17T08:00:14;21.10;41.50
30244;DHT22;64022;53.652;9.792;2024-03-17T08:02:47;20.80;40.30
30244;DHT22;64022;53.652;9.792;2024-03-17T08:05:13;20.50;39.90
30244;DHT22;64022;53.652;9.792;2024-03-17T08:07:39;20.20;39.60
30244;DHT22;64022;53.652;9.792;2024-03-17T08:10:05;20.10;38.80
30244;DHT22;64022;53.652;9.792;2024-03-17T08:12:31;19.90;38.00
30244;DHT22;64022;53.652;9.792;2024-03-17T08:14:58;19.70;37.30
30244;DHT22;64022;53.652;9.792;2024-03-17T08:17:25;19.50;37.00
30244;DHT22;64022;53.652;9.792;2024-03-17T08:19:51;19.40;36.40
30244;DHT22;64022;53.652;9.792;2024-03-17T08:22:17;19.20;36.30
30244;DHT22;64022;53.652;9.792;2024-03-17T08:24:44;19.20;35.80
30244;DHT22;64022;53.652;9.792;2024-03-17T08:27:09;19.10;35.40
30244;DHT22;64022;53.652;9.792;2024-03-17T08:29:36;19.00;34.90
30244;DHT22;64022;53.652;9.792;2024-03-17T08:32:03;19.00;35.80
30244;DHT22;64022;53.652;9.792;2024-03-17T08:34:29;19.00;36.60
30244;DHT22;64022;53.652;9.792;2024-03-17T08:36:55;19.10;37.20
30244;DHT22;64022;53.652;9.792;2024-03-17T08:39:22;19.30;37.70
30244;DHT22;64022;53.652;9.792;2024-03-17T08:41:48;19.40;38.10
30244;DHT22;64022;53.652;9.792;2024-03-17T08:44:14;19.50;38.40
30244;DHT22;64022;53.652;9.792;2024-03-17T08:46:39;19.60;38.80
30244;DHT22;64022;53.652;9.792;2024-03-17T08:49:05;19.80;39.10
30244;DHT22;64022;53.652;9.792;2024-03-17T08:51:31;19.90;39.30
30244;DHT22;64022;53.652;9.792;2024-03-17T08:53:57;20.00;39.60
30244;DHT22;64022;53.652;9.792;2024-03-17T08:56:23;20.00;39.80
30244;DHT22;64022;53.652;9.792;2024-03-17T08:58:49;20.20;40.00
30244;DHT22;64022;53.652;9.792;2024-03-17T09:01:16;20.30;40.20
30244;DHT22;64022;53.652;9.792;2024-03-17T09:03:42;20.30;40.30
30244;DHT22;64022;53.652;9.792;2024-03-17T09:06:15;20.40;40.50
30244;DHT22;64022;53.652;9.792;2024-03-17T09:08:42;20.50;40.60
30244;DHT22;64022;53.652;9.792;2024-03-17T09:11:12;20.50;40.70
30244;DHT22;64022;53.652;9.792;2024-03-17T09:13:38;20.60;40.80
30244;DHT22;64022;53.652;9.792;2024-03-17T09:16:05;20.70;40.90
30244;DHT22;64022;53.652;9.792;2024-03-17T09:18:31;20.60;40.90
30244;DHT22;64022;53.652;9.792;2024-03-17T09:23:26;20.80;41.10
30244;DHT22;64022;53.652;9.792;2024-03-17T09:28:22;20.80;41.30
30244;DHT22;64022;53.652;9.792;2024-03-17T09:30:49;20.90;41.30
30244;DHT22;64022;53.652;9.792;2024-03-17T09:33:15;20.90;41.40
30244;DHT22;64022;53.652;9.792;2024-03-17T09:35:42;20.90;41.40
30244;DHT22;64022;53.652;9.792;2024-03-17T09:38:07;21.00;41.50
30244;DHT22;64022;53.652;9.792;2024-03-17T09:40:33;21.00;41.50
30244;DHT22;64022;53.652;9.792;2024-03-17T09:42:59;21.00;41.50
30244;DHT22;64022;53.652;9.792;2024-03-17T09:45:26;21.00;41.60
30244;DHT22;64022;53.652;9.792;2024-03-17T09:47:57;21.10;41.60
30244;DHT22;64022;53.652;9.792;2024-03-17T09:50:22;21.10;41.70
30244;DHT22;64022;53.652;9.792;2024-03-17T09:52:58;21.10;41.70
30244;DHT22;64022;53.652;9.792;2024-03-17T09:55:25;21.10;41.70
30244;DHT22;64022;53.652;9.792;2024-03-17T09:57:51;21.10;41.70
30244;DHT22;64022;53.652;9.792;2024-03-17T10:00:17;21.20;41.80
30244;DHT22;64022;53.652;9.792;2024-03-17T10:02:43;21.20;42.40
30244;DHT22;64022;53.652;9.792;2024-03-17T10:05:19;21.20;41.80
30244;DHT22;64022;53.652;9.792;2024-03-17T10:07:49;21.20;41.90
30244;DHT22;64022;53.652;9.792;2024-03-17T10:10:16;21.30;41.90
30244;DHT22;64022;53.652;9.792;2024-03-17T10:12:43;21.30;41.90
30244;DHT22;64022;53.652;9.792;2024-03-17T10:15:12;21.30;41.90
30244;DHT22;64022;53.652;9.792;2024-03-17T10:17:38;21.30;42.00
30244;DHT22;64022;53.652;9.792;2024-03-17T10:20:19;21.30;42.00
30244;DHT22;64022;53.652;9.792;2024-03-17T10:22:57;21.30;41.90
30244;DHT22;64022;53.652;9.792;2024-03-17T10:25:24;21.30;41.80
30244;DHT22;64022;53.652;9.792;2024-03-17T10:27:51;21.30;41.60
30244;DHT22;64022;53.652;9.792;2024-03-17T10:30:18;21.30;41.60
30244;DHT22;64022;53.652;9.792;2024-03-17T10:32:57;21.30;41.60
30244;DHT22;64022;53.652;9.792;2024-03-17T10:35:34;21.20;40.40
30244;DHT22;64022;53.652;9.792;2024-03-17T10:38:00;21.10;38.00
30244;DHT22;64022;53.652;9.792;2024-03-17T10:40:27;20.90;36.50
30244;DHT22;64022;53.652;9.792;2024-03-17T10:42:53;20.60;35.20
30244;DHT22;64022;53.652;9.792;2024-03-17T10:45:20;20.40;34.60
30244;DHT22;64022;53.652;9.792;2024-03-17T10:47:47;20.20;34.50
30244;DHT22;64022;53.652;9.792;2024-03-17T10:50:21;20.10;33.70
30244;DHT22;64022;53.652;9.792;2024-03-17T10:52:48;20.00;34.40
30244;DHT22;64022;53.652;9.792;2024-03-17T10:55:23;20.00;35.10
30244;DHT22;64022;53.652;9.792;2024-03-17T10:57:52;20.00;35.60
30244;DHT22;64022;53.652;9.792;2024-03-17T11:00:20;20.10;36.00
30244;DHT22;64022;53.652;9.792;2024-03-17T11:02:49;20.20;36.40
30244;DHT22;64022;53.652;9.792;2024-03-17T11:07:48;20.40;36.90
30244;DHT22;64022;53.652;9.792;2024-03-17T11:10:24;20.40;36.90
30244;DHT22;64022;53.652;9.792;2024-03-17T11:12:50;20.50;36.90
30244;DHT22;64022;53.652;9.792;2024-03-17T11:17:50;20.60;37.20
30244;DHT22;64022;53.652;9.792;2024-03-17T11:22:44;20.60;37.50
30244;DHT22;64022;53.652;9.792;2024-03-17T11:28:08;20.70;37.70
30244;DHT22;64022;53.652;9.792;2024-03-17T11:38:53;20.90;37.90
30244;DHT22;64022;53.652;9.792;2024-03-17T11:46:41;20.60;36.50
30244;DHT22;64022;53.652;9.792;2024-03-17T11:49:18;20.60;36.80
30244;DHT22;64022;53.652;9.792;2024-03-17T11:51:48;20.70;37.00
30244;DHT22;64022;53.652;9.792;2024-03-17T11:54:17;20.70;37.10
30244;DHT22;64022;53.652;9.792;2024-03-17T11:56:50;20.80;37.30
30244;DHT22;64022;53.652;9.792;2024-03-17T11:59:17;20.80;37.40
30244;DHT22;64022;53.652;9.792;2024-03-17T12:01:46;20.90;37.60
30244;DHT22;64022;53.652;9.792;2024-03-17T12:04:16;20.90;37.60
30244;DHT22;64022;53.652;9.792;2024-03-17T12:06:47;20.90;37.70
30244;DHT22;64022;53.652;9.792;2024-03-17T12:09:17;21.00;37.80
30244;DHT22;64022;53.652;9.792;2024-03-17T12:11:44;21.00;37.90
30244;DHT22;64022;53.652;9.792;2024-03-17T12:14:16;21.00;38.00
30244;DHT22;64022;53.652;9.792;2024-03-17T12:16:47;21.10;38.10
30244;DHT22;64022;53.652;9.792;2024-03-17T12:19:15;21.10;38.20
30244;DHT22;64022;53.652;9.792;2024-03-17T12:21:43;21.20;38.30
30244;DHT22;64022;53.652;9.792;2024-03-17T12:24:14;21.20;38.40
30244;DHT22;64022;53.652;9.792;2024-03-17T12:26:40;21.20;38.40
30244;DHT22;64022;53.652;9.792;2024-03-17T12:31:53;21.30;38.60
30244;DHT22;64022;53.652;9.792;2024-03-17T12:34:19;21.30;38.60
30244;DHT22;64022;53.652;9.792;2024-03-17T12:36:46;21.40;38.70
30244;DHT22;64022;53.652;9.792;2024-03-17T12:39:23;21.30;38.70
30244;DHT22;64022;53.652;9.792;2024-03-17T12:42:02;21.40;38.80
30244;DHT22;64022;53.652;9.792;2024-03-17T12:44:30;21.40;38.90
30244;DHT22;64022;53.652;9.792;2024-03-17T12:46:56;21.40;39.00
30244;DHT22;64022;53.652;9.792;2024-03-17T12:49:22;21.50;39.10
30244;DHT22;64022;53.652;9.792;2024-03-17T12:51:52;21.40;39.10
30244;DHT22;64022;53.652;9.792;2024-03-17T12:54:24;21.50;39.20
30244;DHT22;64022;53.652;9.792;2024-03-17T12:57:06;21.50;39.20
30244;DHT22;64022;53.652;9.792;2024-03-17T12:59:51;21.50;39.30
30244;DHT22;64022;53.652;9.792;2024-03-17T13:02:42;21.50;39.40
30244;DHT22;64022;53.652;9.792;2024-03-17T13:05:10;21.60;39.50
30244;DHT22;64022;53.652;9.792;2024-03-17T13:07:38;21.60;39.60
30244;DHT22;64022;53.652;9.792;2024-03-17T13:10:04;21.60;39.60
30244;DHT22;64022;53.652;9.792;2024-03-17T13:12:33;21.60;39.60
30244;DHT22;64022;53.652;9.792;2024-03-17T13:15:00;21.60;39.70
30244;DHT22;64022;53.652;9.792;2024-03-17T13:17:29;21.70;39.80
30244;DHT22;64022;53.652;9.792;2024-03-17T13:19:57;21.70;39.90
30244;DHT22;64022;53.652;9.792;2024-03-17T13:22:23;21.70;39.90
30244;DHT22;64022;53.652;9.792;2024-03-17T13:24:49;21.70;40.00
30244;DHT22;64022;53.652;9.792;2024-03-17T13:27:18;21.70;40.00
30244;DHT22;64022;53.652;9.792;2024-03-17T13:29:47;21.70;40.10
30244;DHT22;64022;53.652;9.792;2024-03-17T13:32:14;21.80;40.20
30244;DHT22;64022;53.652;9.792;2024-03-17T13:34:41;21.80;40.20
30244;DHT22;64022;53.652;9.792;2024-03-17T13:37:07;21.70;40.20
30244;DHT22;64022;53.652;9.792;2024-03-17T13:39:32;21.80;40.30
30244;DHT22;64022;53.652;9.792;2024-03-17T13:42:00;21.80;40.40
30244;DHT22;64022;53.652;9.792;2024-03-17T13:44:29;21.80;40.40
30244;DHT22;64022;53.652;9.792;2024-03-17T13:46:56;21.80;40.50
30244;DHT22;64022;53.652;9.792;2024-03-17T13:49:23;21.80;40.50
30244;DHT22;64022;53.652;9.792;2024-03-17T13:51:49;21.80;40.50
30244;DHT22;64022;53.652;9.792;2024-03-17T13:54:16;21.80;40.50
30244;DHT22;64022;53.652;9.792;2024-03-17T13:56:42;21.80;40.50
30244;DHT22;64022;53.652;9.792;2024-03-17T13:59:09;21.80;40.60
30244;DHT22;64022;53.652;9.792;2024-03-17T14:01:34;21.90;40.70
30244;DHT22;64022;53.652;9.792;2024-03-17T14:04:00;21.80;40.70
30244;DHT22;64022;53.652;9.792;2024-03-17T14:06:27;21.80;40.70
30244;DHT22;64022;53.652;9.792;2024-03-17T14:08:52;21.90;40.80
30244;DHT22;64022;53.652;9.792;2024-03-17T14:11:19;21.90;40.80
30244;DHT22;64022;53.652;9.792;2024-03-17T14:13:46;21.90;40.80
30244;DHT22;64022;53.652;9.792;2024-03-17T14:16:11;21.90;40.90
30244;DHT22;64022;53.652;9.792;2024-03-17T14:18:37;21.90;40.90
30244;DHT22;64022;53.652;9.792;2024-03-17T14:21:03;21.90;40.90
30244;DHT22;64022;53.652;9.792;2024-03-17T14:23:30;21.90;41.00
30244;DHT22;64022;53.652;9.792;2024-03-17T14:25:58;22.00;41.10
30244;DHT22;64022;53.652;9.792;2024-03-17T14:28:24;22.00;41.10
30244;DHT22;64022;53.652;9.792;2024-03-17T14:30:52;22.00;41.20
30244;DHT22;64022;53.652;9.792;2024-03-17T14:33:19;22.00;41.20
30244;DHT22;64022;53.652;9.792;2024-03-17T14:35:45;22.00;41.20
30244;DHT22;64022;53.652;9.792;2024-03-17T14:38:17;21.90;41.20
30244;DHT22;64022;53.652;9.792;2024-03-17T14:40:43;22.00;41.30
30244;DHT22;64022;53.652;9.792;2024-03-17T14:43:11;22.00;41.30
30244;DHT22;64022;53.652;9.792;2024-03-17T14:45:37;22.00;41.40
30244;DHT22;64022;53.652;9.792;2024-03-17T14:48:04;22.00;41.40
30244;DHT22;64022;53.652;9.792;2024-03-17T14:50:30;22.10;41.50
30244;DHT22;64022;53.652;9.792;2024-03-17T14:52:56;22.00;41.50
30244;DHT22;64022;53.652;9.792;2024-03-17T14:55:22;22.00;41.50
30244;DHT22;64022;53.652;9.792;2024-03-17T14:57:49;22.10;41.60
30244;DHT22;64022;53.652;9.792;2024-03-17T15:00:14;22.10;41.60
30244;DHT22;64022;53.652;9.792;2024-03-17T15:02:48;22.10;41.60
30244;DHT22;64022;53.652;9.792;2024-03-17T15:05:17;22.10;41.70
30244;DHT22;64022;53.652;9.792;2024-03-17T15:07:47;22.10;41.70
30244;DHT22;64022;53.652;9.792;2024-03-17T15:10:15;22.10;41.70
30244;DHT22;64022;53.652;9.792;2024-03-17T15:12:42;22.10;41.80
30244;DHT22;64022;53.652;9.792;2024-03-17T15:15:08;22.10;41.80
30244;DHT22;64022;53.652;9.792;2024-03-17T15:17:36;22.10;41.90
30244;DHT22;64022;53.652;9.792;2024-03-17T15:20:03;22.10;41.90
30244;DHT22;64022;53.652;9.792;2024-03-17T15:22:43;22.10;41.90
30244;DHT22;64022;53.652;9.792;2024-03-17T15:25:09;22.20;42.50
30244;DHT22;64022;53.652;9.792;2024-03-17T15:27:36;22.20;42.60
30244;DHT22;64022;53.652;9.792;2024-03-17T15:30:02;22.10;42.00
30244;DHT22;64022;53.652;9.792;2024-03-17T15:32:28;22.10;42.00
30244;DHT22;64022;53.652;9.792;2024-03-17T15:34:54;22.10;42.00
30244;DHT22;64022;53.652;9.792;2024-03-17T15:37:20;22.10;42.10
30244;DHT22;64022;53.652;9.792;2024-03-17T15:39:48;22.10;42.10
30244;DHT22;64022;53.652;9.792;2024-03-17T15:42:15;22.20;42.20
30244;DHT22;64022;53.652;9.792;2024-03-17T15:44:40;22.20;42.20
30244;DHT22;64022;53.652;9.792;2024-03-17T15:47:06;22.20;42.30
30244;DHT22;64022;53.652;9.792;2024-03-17T15:49:35;22.20;42.30
30244;DHT22;64022;53.652;9.792;2024-03-17T15:52:01;22.20;42.30
30244;DHT22;64022;53.652;9.792;2024-03-17T15:54:28;22.20;42.40
30244;DHT22;64022;53.652;9.792;2024-03-17T15:56:53;22.20;42.90
30244;DHT22;64022;53.652;9.792;2024-03-17T15:59:19;22.20;42.40
30244;DHT22;64022;53.652;9.792;2024-03-17T16:01:48;22.20;42.50
30244;DHT22;64022;53.652;9.792;2024-03-17T16:04:19;22.20;42.50